KPIH

Pocatello Regional Airport

Pocatello, Idaho, USA
METAR KPIH 241453Z 05004KT 10SM CLR 16/07 A3017 RMK AO2 SLP183 T01610072 51010
Observed Flight Rules
Jun-24 @ 14:53 UTC (13 minutes ago) Visual Flight Rules
Wind Visibility Clouds
50° at 4 knots 10 miles
  • Clear skies
Temperatures Readings
Current 16°C / 61°F
Dewpoint 7°C / 45°F
Humidity 55%
Altimeter 30.17" Hg
Pressure 1018.3 hPa
Elevation 1359
METAR KPIH 241453Z 05004KT 10SM CLR 16/07 A3017 RMK AO2 SLP183 T01610072 51010
Observed Flight Rules
Jun-24 @ 14:53 UTC
(13 minutes ago)
VFR
Wind Visibility
50° at 4 knots 10 miles
Clouds
  • Clear skies
Temperature Dewpoint
16°C / 61°F 7°C / 45°F
Humidity Altimeter Pressure
55% 30.17" Hg 1018.3 hPa